createdAt,value
2018-06-23T00:01:10.396Z,13.42
2018-06-23T00:03:40.366Z,13.35
2018-06-23T00:06:10.153Z,13.40
2018-06-23T00:08:39.993Z,13.42
2018-06-23T00:11:09.753Z,13.38
2018-06-23T00:13:39.456Z,13.29
2018-06-23T00:16:09.665Z,13.28
2018-06-23T00:18:39.380Z,13.33
2018-06-23T00:21:09.917Z,13.38
2018-06-23T00:23:39.595Z,13.34
2018-06-23T00:26:29.288Z,13.38
2018-06-23T00:28:59.993Z,13.32
2018-06-23T00:31:29.811Z,13.33
2018-06-23T00:33:59.517Z,13.34
2018-06-23T00:36:29.256Z,13.36
2018-06-23T00:38:59.456Z,13.38
2018-06-23T00:41:29.221Z,13.34
2018-06-23T00:43:59.391Z,13.31
2018-06-23T00:46:29.339Z,13.38
2018-06-23T00:48:59.082Z,13.43
2018-06-23T00:51:28.890Z,13.40
2018-06-23T00:54:00.085Z,13.25
2018-06-23T00:56:29.778Z,13.24
2018-06-23T00:59:17.309Z,13.19
2018-06-23T01:01:47.600Z,13.18
2018-06-23T01:04:17.368Z,13.25
2018-06-23T01:06:47.128Z,13.25
2018-06-23T01:09:18.376Z,13.25
2018-06-23T01:11:49.185Z,13.15
2018-06-23T01:14:19.117Z,13.12
2018-06-23T01:16:49.031Z,13.12
2018-06-23T01:19:18.789Z,13.03
2018-06-23T01:24:18.780Z,13.04
2018-06-23T01:26:48.581Z,13.12
2018-06-23T01:29:19.232Z,13.15
2018-06-23T01:31:48.965Z,13.06
2018-06-23T01:34:18.690Z,12.99
2018-06-23T01:36:48.534Z,12.97
2018-06-23T01:39:18.699Z,12.89
2018-06-23T01:41:48.452Z,12.90
2018-06-23T01:44:18.981Z,12.91
2018-06-23T01:46:48.804Z,12.98
2018-06-23T01:49:18.625Z,12.98
2018-06-23T01:51:48.370Z,12.95
2018-06-23T01:54:18.738Z,12.91
2018-06-23T01:56:48.570Z,12.96
2018-06-23T01:59:18.401Z,12.92
2018-06-23T02:01:48.255Z,12.95
2018-06-23T02:04:17.957Z,12.95
2018-06-23T02:06:47.643Z,12.90
2018-06-23T02:09:17.324Z,12.86
2018-06-23T02:11:47.035Z,12.78
2018-06-23T02:14:22.483Z,12.83
2018-06-23T02:16:57.344Z,12.89
2018-06-23T02:19:32.318Z,12.94
2018-06-23T02:22:07.141Z,12.94
2018-06-23T02:24:42.080Z,13.00
2018-06-23T02:27:17.008Z,12.93
2018-06-23T02:29:51.721Z,12.79
2018-06-23T02:32:26.634Z,12.76
2018-06-23T02:35:11.609Z,12.86
2018-06-23T02:37:41.311Z,12.90
2018-06-23T02:40:12.142Z,12.93
2018-06-23T02:42:41.910Z,13.02
2018-06-23T02:45:12.500Z,13.05
2018-06-23T02:47:42.134Z,12.97
2018-06-23T02:50:11.838Z,12.99
2018-06-23T02:52:41.559Z,12.96
2018-06-23T02:55:11.226Z,12.98
2018-06-23T02:57:41.073Z,13.07
2018-06-23T03:00:10.846Z,12.99
2018-06-23T03:02:40.454Z,13.03
2018-06-23T03:05:10.154Z,12.98
2018-06-23T03:07:39.870Z,12.98
2018-06-23T03:10:10.011Z,13.00
2018-06-23T03:12:39.739Z,12.95
2018-06-23T03:15:10.329Z,12.99
2018-06-23T03:17:40.998Z,12.97
2018-06-23T03:20:10.898Z,13.00
2018-06-23T03:22:41.294Z,12.98
2018-06-23T03:25:10.910Z,13.01
2018-06-23T03:27:41.502Z,13.04
2018-06-23T03:30:11.834Z,13.05
2018-06-23T03:32:43.013Z,13.00
2018-06-23T03:35:13.135Z,13.03
2018-06-23T03:37:42.891Z,13.06
2018-06-23T03:40:12.999Z,13.03
2018-06-23T03:42:42.716Z,13.04
2018-06-23T03:45:12.439Z,13.02
2018-06-23T03:47:42.383Z,13.11
2018-06-23T03:50:13.548Z,13.11
2018-06-23T03:52:43.274Z,13.00
2018-06-23T03:55:12.937Z,12.94
2018-06-23T03:57:42.673Z,12.87
2018-06-23T04:00:12.362Z,12.80
2018-06-23T04:02:42.734Z,12.79
2018-06-23T04:05:13.155Z,12.76
2018-06-23T04:07:42.831Z,12.69
2018-06-23T04:10:12.542Z,12.66
2018-06-23T04:12:42.262Z,12.63
2018-06-23T04:15:11.925Z,12.65
2018-06-23T04:17:42.077Z,12.66
2018-06-23T04:20:11.729Z,12.47
2018-06-23T04:22:41.377Z,12.52
2018-06-23T04:25:11.371Z,12.35
2018-06-23T04:27:40.945Z,12.25
2018-06-23T04:30:10.655Z,12.30
2018-06-23T04:32:40.373Z,12.28
2018-06-23T04:35:10.096Z,12.36
2018-06-23T04:37:39.367Z,12.27
2018-06-23T04:40:09.151Z,12.11
2018-06-23T04:42:38.832Z,12.05
2018-06-23T04:45:08.488Z,12.17
2018-06-23T04:47:38.441Z,12.25
2018-06-23T04:50:07.798Z,12.19
2018-06-23T04:52:37.597Z,12.16
2018-06-23T04:55:07.421Z,12.22
2018-06-23T04:57:37.059Z,12.29
2018-06-23T05:00:06.823Z,12.28
2018-06-23T05:02:36.534Z,12.37
2018-06-23T05:05:07.127Z,12.43
2018-06-23T05:07:36.923Z,12.35
2018-06-23T05:10:06.594Z,12.37
2018-06-23T05:12:37.139Z,12.39
2018-06-23T05:15:07.002Z,12.42
2018-06-23T05:17:36.508Z,12.45
2018-06-23T05:20:06.270Z,12.38
2018-06-23T05:22:36.137Z,12.41
2018-06-23T05:25:06.310Z,12.41
2018-06-23T05:27:35.975Z,12.34
2018-06-23T05:30:06.240Z,12.45
2018-06-23T05:32:35.904Z,12.56
2018-06-23T05:35:07.514Z,12.55
2018-06-23T05:37:38.950Z,12.59
2018-06-23T05:40:09.574Z,12.61
2018-06-23T05:44:08.301Z,12.61
2018-06-23T05:46:37.995Z,12.54
2018-06-23T05:49:07.691Z,12.49
2018-06-23T05:51:37.558Z,12.48
2018-06-23T05:54:07.424Z,12.50
2018-06-23T05:56:37.153Z,12.58
2018-06-23T05:59:07.417Z,12.56
2018-06-23T06:01:37.500Z,12.61
2018-06-23T06:04:07.194Z,12.71
2018-06-23T06:06:36.821Z,12.72
2018-06-23T06:09:10.855Z,12.75
2018-06-23T06:11:40.549Z,12.70
2018-06-23T06:14:10.171Z,12.74
2018-06-23T06:17:24.216Z,12.83
2018-06-23T06:19:56.095Z,12.93
2018-06-23T06:22:27.862Z,13.07
2018-06-23T06:24:57.770Z,13.11
2018-06-23T06:27:27.470Z,13.12
2018-06-23T06:29:58.698Z,13.17
2018-06-23T06:32:28.872Z,13.13
2018-06-23T06:34:58.852Z,12.99
2018-06-23T06:37:28.633Z,13.04
2018-06-23T06:39:58.705Z,13.11
2018-06-23T06:42:28.415Z,13.11
2018-06-23T06:44:58.134Z,13.17
2018-06-23T06:47:27.854Z,12.96
2018-06-23T06:49:57.507Z,12.96
2018-06-23T06:52:27.179Z,12.92
2018-06-23T06:54:57.323Z,12.93
2018-06-23T06:57:27.340Z,12.96
2018-06-23T06:59:57.151Z,12.94
2018-06-23T07:02:26.847Z,12.99
2018-06-23T07:04:56.796Z,13.07
2018-06-23T07:07:26.500Z,13.12
2018-06-23T07:09:56.259Z,13.19
2018-06-23T07:12:26.034Z,13.25
2018-06-23T07:14:57.089Z,13.32
2018-06-23T07:17:26.862Z,13.33
2018-06-23T07:19:56.620Z,13.35
2018-06-23T07:22:26.333Z,13.43
2018-06-23T07:24:56.656Z,13.52
2018-06-23T07:27:26.560Z,13.50
2018-06-23T07:29:59.100Z,13.42
2018-06-23T07:32:28.841Z,13.39
2018-06-23T07:34:59.196Z,13.46
2018-06-23T07:37:30.392Z,13.45
2018-06-23T07:40:00.299Z,13.44
2018-06-23T07:42:30.786Z,13.48
2018-06-23T07:45:01.265Z,13.51
2018-06-23T07:47:33.261Z,13.53
2018-06-23T07:50:03.244Z,13.47
2018-06-23T07:52:33.305Z,13.53
2018-06-23T07:55:03.019Z,13.49
2018-06-23T07:57:32.682Z,13.56
2018-06-23T08:00:03.487Z,13.58
2018-06-23T08:02:33.270Z,13.70
2018-06-23T08:05:03.033Z,13.82
2018-06-23T08:07:32.665Z,13.94
2018-06-23T08:10:03.837Z,14.02
2018-06-23T08:12:34.247Z,14.09
2018-06-23T08:15:05.768Z,14.12
2018-06-23T08:17:38.640Z,14.22
2018-06-23T08:20:10.577Z,14.34
2018-06-23T08:22:40.274Z,14.51
2018-06-23T08:25:11.191Z,14.58
2018-06-23T08:27:42.010Z,14.75
2018-06-23T08:30:13.232Z,14.74
2018-06-23T08:32:43.997Z,14.82
2018-06-23T08:35:15.382Z,14.77
2018-06-23T08:37:46.663Z,14.88
2018-06-23T08:40:17.633Z,14.97
2018-06-23T08:42:48.982Z,15.14
2018-06-23T08:45:21.587Z,15.43
2018-06-23T08:47:54.357Z,15.69
2018-06-23T08:50:26.477Z,15.78
2018-06-23T08:53:00.358Z,15.80
2018-06-23T08:55:32.480Z,15.77
2018-06-23T08:58:03.278Z,15.75
2018-06-23T09:00:38.985Z,15.66
2018-06-23T09:03:12.505Z,15.74
2018-06-23T09:05:43.345Z,15.80
2018-06-23T09:08:13.947Z,15.66
2018-06-23T09:10:46.340Z,15.65
2018-06-23T09:13:17.650Z,15.57
2018-06-23T09:15:47.548Z,15.50
2018-06-23T09:18:17.736Z,15.56
2018-06-23T09:20:48.200Z,15.68
2018-06-23T09:23:18.785Z,15.82
2018-06-23T09:25:51.718Z,15.85
2018-06-23T09:28:22.275Z,16.07
2018-06-23T09:30:53.285Z,16.19
2018-06-23T09:33:24.272Z,16.20
2018-06-23T09:36:00.202Z,16.16
2018-06-23T09:38:31.904Z,16.16
2018-06-23T09:41:01.649Z,16.11
2018-06-23T09:43:31.448Z,15.90
2018-06-23T09:46:02.179Z,15.96
2018-06-23T09:48:33.393Z,16.09
2018-06-23T09:51:06.560Z,16.38
2018-06-23T09:53:38.724Z,16.38
2018-06-23T09:56:09.487Z,16.40
2018-06-23T09:58:40.807Z,16.25
2018-06-23T10:01:14.690Z,16.10
2018-06-23T10:03:44.598Z,16.08
2018-06-23T10:06:14.239Z,16.05
2018-06-23T10:08:45.683Z,16.17
2018-06-23T10:11:16.803Z,16.46
2018-06-23T10:13:46.419Z,16.62
2018-06-23T10:16:17.006Z,16.63
2018-06-23T10:18:49.576Z,16.71
2018-06-23T10:21:19.420Z,16.76
2018-06-23T10:23:50.079Z,16.72
2018-06-23T10:26:20.193Z,16.61
2018-06-23T10:28:50.355Z,16.53
2018-06-23T10:31:21.146Z,16.44
2018-06-23T10:33:50.495Z,16.50
2018-06-23T10:36:21.832Z,16.46
2018-06-23T10:38:51.851Z,16.56
2018-06-23T10:41:21.703Z,16.52
2018-06-23T10:43:51.474Z,16.63
2018-06-23T10:46:23.103Z,16.60
2018-06-23T10:48:53.271Z,16.47
2018-06-23T10:51:23.930Z,16.39
2018-06-23T10:53:54.906Z,16.45
2018-06-23T10:56:26.497Z,16.49
2018-06-23T10:58:56.372Z,16.50
2018-06-23T11:01:28.591Z,16.49
2018-06-23T11:03:59.914Z,16.45
2018-06-23T11:06:30.670Z,16.46
2018-06-23T11:09:00.319Z,16.42
2018-06-23T11:11:29.979Z,16.40
2018-06-23T11:14:03.105Z,16.23
2018-06-23T11:16:33.241Z,16.23
2018-06-23T11:19:03.595Z,16.28
2018-06-23T11:21:33.653Z,16.23
2018-06-23T11:24:03.866Z,16.22
2018-06-23T11:26:33.583Z,16.15
2018-06-23T11:29:03.491Z,16.11
2018-06-23T11:31:33.448Z,16.12
2018-06-23T11:34:03.383Z,16.16
2018-06-23T11:36:34.581Z,16.20
2018-06-23T11:39:06.672Z,16.23
2018-06-23T11:41:36.500Z,16.28
2018-06-23T11:44:06.226Z,16.29
2018-06-23T11:46:39.069Z,16.31
2018-06-23T11:49:08.650Z,16.27
2018-06-23T11:51:39.010Z,16.23
2018-06-23T11:54:08.730Z,16.20
2018-06-23T11:56:38.455Z,16.10
2018-06-23T11:59:09.141Z,16.03
2018-06-23T12:01:38.876Z,15.93
2018-06-23T12:04:08.938Z,15.95
2018-06-23T12:06:40.134Z,15.90
2018-06-23T12:09:09.881Z,15.79
2018-06-23T12:11:41.071Z,15.81
2018-06-23T12:14:10.924Z,15.92
2018-06-23T12:16:41.462Z,15.95
2018-06-23T12:19:11.784Z,15.94
2018-06-23T12:21:41.778Z,15.81
2018-06-23T12:24:11.765Z,15.87
2018-06-23T12:26:46.468Z,15.88
2018-06-23T12:29:20.055Z,15.86
2018-06-23T12:31:49.862Z,15.91
2018-06-23T12:34:20.291Z,15.95
2018-06-23T12:36:51.018Z,15.96
2018-06-23T12:39:20.747Z,16.05
2018-06-23T12:41:51.267Z,16.08
2018-06-23T12:44:21.676Z,16.16
2018-06-23T12:46:51.317Z,16.17
2018-06-23T12:49:20.971Z,16.18
2018-06-23T12:51:50.672Z,16.21
2018-06-23T12:54:20.420Z,16.21
2018-06-23T12:56:50.589Z,16.18
2018-06-23T12:59:20.366Z,16.23
2018-06-23T13:01:50.854Z,16.22
2018-06-23T13:04:20.993Z,16.20
2018-06-23T13:06:51.343Z,16.13
2018-06-23T13:09:21.150Z,16.07
2018-06-23T13:11:50.839Z,16.04
2018-06-23T13:14:20.698Z,15.95
2018-06-23T13:16:50.725Z,15.88
2018-06-23T13:19:20.533Z,15.96
2018-06-23T13:21:53.261Z,15.95
2018-06-23T13:24:23.987Z,15.91
2018-06-23T13:26:54.636Z,15.94
2018-06-23T13:29:24.311Z,15.90
2018-06-23T13:31:54.712Z,15.91
2018-06-23T13:34:26.244Z,16.01
2018-06-23T13:36:56.029Z,16.09
2018-06-23T13:39:25.794Z,16.06
2018-06-23T13:41:56.517Z,16.14
2018-06-23T13:44:27.948Z,16.36
2018-06-23T13:47:00.016Z,16.48
2018-06-23T13:49:29.989Z,16.50
2018-06-23T13:52:00.612Z,16.50
2018-06-23T13:54:30.432Z,16.51
2018-06-23T13:57:01.485Z,16.58
2018-06-23T13:59:31.215Z,16.57
2018-06-23T14:02:00.968Z,16.51
2018-06-23T14:04:30.705Z,16.52
2018-06-23T14:07:01.477Z,16.52
2018-06-23T14:09:31.153Z,16.48
2018-06-23T14:12:02.690Z,16.38
2018-06-23T14:14:33.983Z,16.31
2018-06-23T14:17:05.363Z,16.23
2018-06-23T14:19:35.076Z,16.20
2018-06-23T14:22:05.745Z,16.29
2018-06-23T14:24:38.380Z,16.38
2018-06-23T14:27:14.375Z,16.48
2018-06-23T14:29:48.524Z,16.48
2018-06-23T14:32:20.107Z,16.42
2018-06-23T14:34:52.923Z,16.46
2018-06-23T14:37:26.666Z,16.52
2018-06-23T14:40:00.405Z,16.50
2018-06-23T14:42:31.253Z,16.43
2018-06-23T14:45:06.100Z,16.31
2018-06-23T14:47:36.658Z,16.20
2018-06-23T14:50:07.494Z,16.19
2018-06-23T14:52:37.503Z,16.15
2018-06-23T14:55:07.234Z,16.12
2018-06-23T14:57:39.362Z,16.04
2018-06-23T15:00:09.405Z,16.08
2018-06-23T15:02:39.785Z,16.14
2018-06-23T15:05:10.442Z,16.19
2018-06-23T15:07:41.305Z,16.18
2018-06-23T15:10:29.868Z,16.21
2018-06-23T15:13:14.847Z,16.26
2018-06-23T15:15:46.718Z,16.27
2018-06-23T15:18:22.083Z,16.23
2018-06-23T15:20:52.313Z,16.26
2018-06-23T15:23:22.836Z,16.27
2018-06-23T15:25:52.624Z,16.27
2018-06-23T15:28:22.355Z,16.26
2018-06-23T15:30:52.173Z,16.29
2018-06-23T15:33:21.951Z,16.30
2018-06-23T15:35:52.640Z,16.31
2018-06-23T15:38:22.246Z,16.40
2018-06-23T15:40:51.885Z,16.52
2018-06-23T15:43:22.339Z,16.58
2018-06-23T15:45:51.965Z,16.53
2018-06-23T15:48:21.653Z,16.50
2018-06-23T15:50:51.327Z,16.47
2018-06-23T15:53:20.942Z,16.45
2018-06-23T15:55:50.925Z,16.40
2018-06-23T15:58:21.587Z,16.35
2018-06-23T16:00:52.381Z,16.31
2018-06-23T16:03:22.069Z,16.24
2018-06-23T16:05:52.245Z,16.24
2018-06-23T16:08:22.127Z,16.21
2018-06-23T16:10:51.822Z,16.19
2018-06-23T16:13:21.725Z,16.19
2018-06-23T16:15:52.722Z,16.19
2018-06-23T16:18:22.432Z,16.17
2018-06-23T16:20:52.783Z,16.19
2018-06-23T16:23:22.505Z,16.18
2018-06-23T16:25:52.366Z,16.15
2018-06-23T16:28:23.244Z,16.22
2018-06-23T16:30:54.020Z,16.25
2018-06-23T16:33:23.895Z,16.28
2018-06-23T16:35:54.002Z,16.21
2018-06-23T16:38:24.272Z,16.18
2018-06-23T16:40:55.811Z,16.11
2018-06-23T16:43:25.848Z,16.14
2018-06-23T16:45:55.561Z,16.14
2018-06-23T16:48:25.914Z,16.15
2018-06-23T16:50:55.975Z,16.14
2018-06-23T16:53:25.693Z,16.13
2018-06-23T16:55:55.524Z,16.13
2018-06-23T16:58:26.614Z,16.12
2018-06-23T17:00:56.482Z,16.01
2018-06-23T17:03:26.738Z,15.97
2018-06-23T17:05:57.056Z,15.99
2018-06-23T17:08:27.302Z,16.00
2018-06-23T17:10:58.714Z,16.00
2018-06-23T17:13:28.518Z,15.98
2018-06-23T17:15:57.887Z,15.98
2018-06-23T17:18:27.599Z,15.94
2018-06-23T17:20:57.341Z,15.96
2018-06-23T17:23:26.994Z,15.96
2018-06-23T17:25:56.738Z,15.91
2018-06-23T17:28:26.408Z,15.91
2018-06-23T17:30:56.173Z,15.91
2018-06-23T17:33:26.042Z,15.87
2018-06-23T17:35:56.257Z,15.81
2018-06-23T17:38:26.172Z,15.78
2018-06-23T17:40:56.052Z,15.80
2018-06-23T17:43:25.887Z,15.74
2018-06-23T17:45:55.573Z,15.70
2018-06-23T17:48:24.858Z,15.72
2018-06-23T17:50:54.528Z,15.71
2018-06-23T17:53:24.972Z,15.70
2018-06-23T17:55:54.798Z,15.70
2018-06-23T17:58:25.697Z,15.68
2018-06-23T18:00:55.510Z,15.65
2018-06-23T18:03:26.035Z,15.62
2018-06-23T18:05:56.382Z,15.63
2018-06-23T18:08:26.139Z,15.62
2018-06-23T18:10:55.904Z,15.58
2018-06-23T18:13:26.246Z,15.46
2018-06-23T18:15:55.927Z,15.43
2018-06-23T18:18:26.463Z,15.45
2018-06-23T18:20:57.128Z,15.46
2018-06-23T18:23:27.286Z,15.43
2018-06-23T18:25:57.711Z,15.42
2018-06-23T18:28:27.721Z,15.33
2018-06-23T18:30:57.676Z,15.32
2018-06-23T18:33:27.482Z,15.28
2018-06-23T18:35:57.264Z,15.24
2018-06-23T18:38:27.027Z,15.23
2018-06-23T18:40:56.919Z,15.22
2018-06-23T18:43:26.637Z,15.12
2018-06-23T18:45:56.410Z,15.05
2018-06-23T18:48:26.136Z,15.00
2018-06-23T18:50:55.969Z,14.94
2018-06-23T18:53:25.744Z,14.90
2018-06-23T18:55:55.220Z,14.92
2018-06-23T18:58:25.883Z,14.95
2018-06-23T19:00:55.825Z,14.91
2018-06-23T19:03:25.528Z,14.94
2018-06-23T19:05:55.340Z,14.90
2018-06-23T19:08:25.084Z,14.83
2018-06-23T19:10:54.814Z,14.85
2018-06-23T19:13:25.334Z,14.90
2018-06-23T19:15:56.696Z,14.94
2018-06-23T19:18:26.503Z,14.95
2018-06-23T19:20:57.031Z,15.01
2018-06-23T19:23:27.306Z,14.93
2018-06-23T19:25:57.045Z,14.93
2018-06-23T19:28:26.886Z,14.93
2018-06-23T19:30:57.986Z,14.93
2018-06-23T19:33:28.779Z,14.99
2018-06-23T19:35:58.458Z,14.99
2018-06-23T19:38:28.378Z,14.91
2018-06-23T19:40:58.861Z,14.93
2018-06-23T19:43:28.473Z,14.97
2018-06-23T19:45:58.229Z,14.92
2018-06-23T19:48:28.367Z,15.00
2018-06-23T19:50:58.558Z,15.02
2018-06-23T19:53:28.202Z,15.00
2018-06-23T19:55:58.035Z,15.01
2018-06-23T19:58:27.804Z,15.01
2018-06-23T20:00:57.857Z,14.97
2018-06-23T20:03:27.569Z,15.00
2018-06-23T20:05:57.299Z,14.97
2018-06-23T20:08:27.904Z,14.98
2018-06-23T20:10:58.116Z,14.96
2018-06-23T20:13:27.957Z,14.91
2018-06-23T20:15:58.026Z,14.92
2018-06-23T20:18:28.574Z,14.87
2018-06-23T20:20:59.213Z,14.90
2018-06-23T20:23:28.974Z,14.91
2018-06-23T20:25:59.114Z,14.90
2018-06-23T20:28:28.983Z,14.95
2018-06-23T20:30:58.672Z,15.00
2018-06-23T20:33:28.406Z,15.05
2018-06-23T20:35:58.608Z,15.01
2018-06-23T20:38:29.004Z,15.02
2018-06-23T20:40:58.724Z,14.93
2018-06-23T20:43:28.625Z,14.91
2018-06-23T20:45:58.389Z,14.93
2018-06-23T20:48:28.338Z,14.97
2018-06-23T20:50:58.037Z,14.96
2018-06-23T20:53:28.852Z,14.97
2018-06-23T20:55:59.133Z,14.95
2018-06-23T20:58:28.943Z,14.95
2018-06-23T21:00:58.855Z,15.00
2018-06-23T21:03:30.017Z,15.01
2018-06-23T21:05:59.800Z,15.02
2018-06-23T21:08:29.613Z,15.02
2018-06-23T21:11:00.034Z,15.05
2018-06-23T21:13:29.710Z,15.06
2018-06-23T21:16:00.096Z,15.04
2018-06-23T21:18:29.459Z,15.08
2018-06-23T21:20:59.283Z,15.08
2018-06-23T21:23:29.106Z,15.06
2018-06-23T21:25:58.832Z,15.05
2018-06-23T21:28:29.315Z,15.04
2018-06-23T21:31:00.605Z,14.97
2018-06-23T21:33:30.454Z,14.93
2018-06-23T21:36:00.448Z,14.91
2018-06-23T21:38:30.460Z,14.92
2018-06-23T21:41:00.106Z,14.92
2018-06-23T21:43:29.830Z,14.90
2018-06-23T21:46:00.311Z,14.87
2018-06-23T21:48:30.165Z,14.84
2018-06-23T21:50:59.857Z,14.83
2018-06-23T21:53:29.768Z,14.78
2018-06-23T21:55:59.505Z,14.75
2018-06-23T21:58:29.398Z,14.73
2018-06-23T22:00:59.050Z,14.78
2018-06-23T22:03:28.695Z,14.71
2018-06-23T22:06:00.456Z,14.73
2018-06-23T22:08:30.135Z,14.74
2018-06-23T22:10:59.604Z,14.72
2018-06-23T22:13:29.309Z,14.70
2018-06-23T22:15:58.988Z,14.69
2018-06-23T22:18:30.712Z,14.67
2018-06-23T22:21:01.944Z,14.70
2018-06-23T22:23:32.009Z,14.66
2018-06-23T22:26:01.772Z,14.60
2018-06-23T22:28:33.770Z,14.55
2018-06-23T22:31:03.595Z,14.58
2018-06-23T22:33:33.795Z,14.60
2018-06-23T22:36:03.212Z,14.56
2018-06-23T22:38:33.843Z,14.53
2018-06-23T22:41:04.508Z,14.53
2018-06-23T22:43:34.247Z,14.44
2018-06-23T22:46:04.065Z,14.48
2018-06-23T22:48:34.447Z,14.51
2018-06-23T22:51:04.719Z,14.50
2018-06-23T22:53:41.370Z,14.48
2018-06-23T22:56:12.012Z,14.46
2018-06-23T22:58:42.706Z,14.42
2018-06-23T23:01:12.506Z,14.45
2018-06-23T23:03:42.461Z,14.45
2018-06-23T23:06:12.106Z,14.50
2018-06-23T23:08:42.503Z,14.49
2018-06-23T23:11:13.208Z,14.47
2018-06-23T23:13:42.912Z,14.40
2018-06-23T23:16:12.635Z,14.34
2018-06-23T23:18:42.388Z,14.25
2018-06-23T23:21:27.752Z,14.25
2018-06-23T23:23:57.616Z,14.22
2018-06-23T23:26:28.056Z,14.21
2018-06-23T23:28:58.526Z,14.15
2018-06-23T23:31:28.393Z,14.10
2018-06-23T23:33:58.110Z,14.08
2018-06-23T23:36:27.850Z,14.08
2018-06-23T23:38:57.823Z,14.05
2018-06-23T23:41:28.232Z,14.07
2018-06-23T23:43:57.857Z,14.03
2018-06-23T23:46:27.733Z,13.97
2018-06-23T23:49:00.384Z,13.97
2018-06-23T23:51:30.090Z,13.88
2018-06-23T23:54:00.153Z,13.80
2018-06-23T23:56:29.584Z,13.79
2018-06-23T23:58:59.971Z,13.74
